Weather History for Marysville, OH

Change the Weather History Date:

Tuesday, December 4, 2012

  Actual Average (KDLZ) Record (KDLZ)
Temperature  
Mean Temperature 52 °F -  
Max Temperature 63 °F 42 °F 74 °F (1982)
Min Temperature 40 °F 24 °F -2 °F (1966)
Degree Days  
Heating Degree Days 14    
Growing Degree Days 2 (Base 50)    
Moisture  
Dew Point 47 °F    
Average Humidity 82    
Maximum Humidity 92    
Minimum Humidity 72    
Precipitation  
Precipitation 0.09 in - - ()
Sea Level Pressure  
Sea Level Pressure 30.08 in    
Wind  
Wind Speed 11 mph (WSW)    
Max Wind Speed 20 mph    
Max Gust Speed 26 mph    
Visibility 9 miles    
Events      
Averages and records for this station are not official NWS values.
T = Trace of Precipitation, MM = Missing Value Source: NWS Daily Summary

Daily Weather History Graph

Daily Weather History Graph

Search for Another Location

Airport:

Trip Planner

Search our weather history database for the weather conditions in past years. The results will help you decide how hot, cold, wet, or windy it might be!

Date:

Astronomy

Dec. 04, 2012 Rise Set
Actual Time 7:40 AM EST 5:07 PM EST
Civil Twilight 7:09 AM EST 5:37 PM EST
Nautical Twilight 6:35 AM EST 6:11 PM EST
Astronomical Twilight 6:03 AM EST 6:44 PM EST
Moon 10:54 PM EST (12/4) 11:33 AM EST (12/4)
Length of Visible Light 10h 27m
Length of Day
9h 27m
Waning Gibbous, 69% of the Moon is Illuminated
Dec 4
Waning Gibbous
Dec 6
Last Quarter
Dec 13
New
Dec 20
First Quarter
Dec 28
Full

Hourly Weather History & Observations

Time (EST) Temp. Windchill Dew Point Humidity Pressure Visibility Wind Dir Wind Speed Gust Speed Precip Events Conditions
12:14 AM 57.2 °F - 51.1 °F 80% 30.09 in 10.0 mi SW 13.8 mph - N/A   Clear
12:34 AM 56.7 °F - 50.9 °F 81% 30.09 in 10.0 mi SW 12.7 mph - N/A   Clear
12:54 AM 56.7 °F - 50.9 °F 81% 30.09 in 10.0 mi SSW 12.7 mph - N/A   Mostly Cloudy
1:14 AM 56.3 °F - 50.7 °F 82% 30.08 in 10.0 mi SSW 10.4 mph - N/A   Mostly Cloudy
1:35 AM 56.3 °F - 50.4 °F 80% 30.08 in 10.0 mi SSW 12.7 mph - N/A   Mostly Cloudy
1:54 AM 55.6 °F - 50.2 °F 82% 30.09 in 10.0 mi SSW 10.4 mph - N/A   Mostly Cloudy
2:14 AM 55.6 °F - 50.0 °F 81% 30.09 in 10.0 mi SSW 9.2 mph - N/A   Overcast
2:35 AM 55.0 °F - 50.0 °F 83% 30.09 in 10.0 mi SSW 9.2 mph - N/A   Overcast
2:54 AM 55.4 °F - 50.0 °F 82% 30.09 in 10.0 mi SSW 10.4 mph - N/A   Overcast
3:14 AM 54.9 °F - 49.6 °F 83% 30.09 in 10.0 mi SSW 11.5 mph - N/A   Overcast
3:54 AM 55.0 °F - 48.7 °F 79% 30.07 in 10.0 mi SSW 10.4 mph - N/A   Scattered Clouds
4:14 AM 54.7 °F - 48.4 °F 79% 30.06 in 10.0 mi SSW 10.4 mph 17.3 mph N/A   Clear
4:35 AM 54.1 °F - 48.2 °F 80% 30.06 in 10.0 mi SSW 12.7 mph 17.3 mph N/A   Clear
4:54 AM 54.5 °F - 48.2 °F 79% 30.06 in 10.0 mi SSW 12.7 mph - N/A   Mostly Cloudy
5:14 AM 54.9 °F - 48.2 °F 78% 30.06 in 10.0 mi SSW 11.5 mph - N/A   Overcast
5:35 AM 55.4 °F - 48.2 °F 77% 30.05 in 10.0 mi SW 11.5 mph - N/A   Overcast
5:54 AM 55.6 °F - 48.4 °F 77% 30.06 in 10.0 mi SW 12.7 mph 17.3 mph N/A   Overcast
6:14 AM 55.4 °F - 48.6 °F 78% 30.05 in 10.0 mi SW 13.8 mph - N/A   Overcast
6:34 AM 55.4 °F - 48.6 °F 78% 30.06 in 10.0 mi SW 11.5 mph - N/A   Overcast
6:54 AM 55.4 °F - 48.6 °F 78% 30.06 in 10.0 mi SW 10.4 mph - N/A   Overcast
7:14 AM 55.4 °F - 48.7 °F 78% 30.06 in 10.0 mi SSW 11.5 mph - N/A   Overcast
7:34 AM 55.4 °F - 49.1 °F 79% 30.06 in 10.0 mi SW 12.7 mph - N/A   Overcast
7:54 AM 55.6 °F - 49.1 °F 79% 30.06 in 10.0 mi SSW 11.5 mph - N/A   Overcast
8:14 AM 55.4 °F - 49.1 °F 79% 30.06 in 10.0 mi SSW 11.5 mph - N/A   Overcast
8:34 AM 55.4 °F - 49.3 °F 80% 30.06 in 10.0 mi SSW 12.7 mph - N/A   Overcast
8:54 AM 55.8 °F - 49.6 °F 80% 30.06 in 10.0 mi SSW 13.8 mph 17.3 mph N/A   Overcast
9:14 AM 56.3 °F - 50.0 °F 79% 30.06 in 10.0 mi SSW 12.7 mph - N/A   Overcast
9:34 AM 58.1 °F - 50.2 °F 75% 30.06 in 10.0 mi SSW 11.5 mph - N/A   Overcast
9:54 AM 58.5 °F - 50.9 °F 76% 30.06 in 10.0 mi SW 15.0 mph 19.6 mph N/A   Overcast
10:14 AM 59.2 °F - 51.4 °F 75% 30.06 in 10.0 mi SW 13.8 mph - N/A   Overcast
10:34 AM 59.7 °F - 52.0 °F 76% 30.06 in 10.0 mi SW 12.7 mph 17.3 mph N/A   Overcast
10:54 AM 60.6 °F - 52.7 °F 75% 30.05 in 10.0 mi SW 12.7 mph - N/A   Overcast
11:14 AM 61.7 °F - 52.9 °F 73% 30.05 in 10.0 mi SSW 12.7 mph 20.7 mph N/A   Overcast
11:34 AM 61.7 °F - 53.1 °F 73% 30.04 in 10.0 mi SW 15.0 mph - N/A   Overcast
11:54 AM 62.1 °F - 52.9 °F 72% 30.03 in 10.0 mi SW 16.1 mph 20.7 mph N/A   Overcast
12:14 PM 62.1 °F - 53.2 °F 73% 30.02 in 10.0 mi SW 16.1 mph 20.7 mph N/A   Overcast
12:34 PM 61.9 °F - 53.2 °F 73% 30.02 in 10.0 mi SW 16.1 mph 20.7 mph N/A   Overcast
1:15 PM 63.0 °F - 54.0 °F 72% 29.99 in 10.0 mi WSW 19.6 mph 26.5 mph N/A   Overcast
1:34 PM 62.6 °F - 54.0 °F 73% 29.99 in 10.0 mi SW 16.1 mph 25.3 mph N/A   Overcast
1:54 PM 62.2 °F - 54.1 °F 75% 29.98 in 10.0 mi SW 16.1 mph 25.3 mph N/A   Overcast
2:15 PM 61.3 °F - 55.2 °F 80% 29.98 in 5.0 mi SW 13.8 mph - N/A   Overcast
2:34 PM 60.3 °F - 55.4 °F 84% 29.98 in 3.0 mi SW 12.7 mph - 0.01 in   Overcast
2:54 PM 59.5 °F - 56.3 °F 89% 29.98 in 1.8 mi WSW 10.4 mph - 0.03 in   Overcast
3:15 PM 53.1 °F - 50.2 °F 90% 30.01 in 3.0 mi NNW 10.4 mph 18.4 mph 0.01 in   Overcast
3:34 PM 51.3 °F - 48.2 °F 89% 30.02 in 4.0 mi NNW 12.7 mph 18.4 mph 0.01 in   Overcast
3:54 PM 50.4 °F - 47.5 °F 90% 30.02 in 2.0 mi North 9.2 mph - 0.02 in   Overcast
4:15 PM 49.1 °F - 46.6 °F 91% 30.03 in 1.8 mi North 11.5 mph 18.4 mph 0.01 in   Overcast
4:34 PM 48.0 °F - 45.3 °F 90% 30.04 in 4.0 mi NNW 17.3 mph - 0.01 in   Overcast
4:54 PM 45.1 °F 39.1 °F 41.0 °F 85% 30.07 in 2.0 mi NNW 12.7 mph 20.7 mph 0.02 in   Overcast
5:14 PM 43.7 °F 38.6 °F 39.6 °F 85% 30.08 in 3.0 mi NNW 9.2 mph - N/A   Overcast
5:54 PM 43.9 °F 39.3 °F 39.2 °F 84% 30.11 in 7.0 mi NNW 8.1 mph - 0.01 in   Overcast
6:14 PM 43.9 °F 40.5 °F 39.4 °F 84% 30.11 in 5.0 mi North 5.8 mph - N/A   Overcast
6:34 PM 43.7 °F 41.1 °F 39.7 °F 86% 30.12 in 7.0 mi North 4.6 mph - N/A   Overcast
6:54 PM 43.7 °F 42.1 °F 39.6 °F 85% 30.12 in 10.0 mi NNW 3.5 mph - N/A   Overcast
7:14 PM 43.7 °F - 39.7 °F 86% 30.12 in 10.0 mi Calm Calm - N/A   Overcast
7:34 PM 43.7 °F - 39.6 °F 85% 30.12 in 10.0 mi Calm Calm - N/A   Overcast
7:54 PM 44.1 °F 42.5 °F 40.1 °F 86% 30.13 in 10.0 mi West 3.5 mph - 0.01 in   Overcast
8:14 PM 44.1 °F 42.5 °F 40.3 °F 87% 30.14 in 10.0 mi SW 3.5 mph - N/A   Overcast
8:34 PM 43.7 °F 41.1 °F 40.3 °F 88% 30.14 in 10.0 mi West 4.6 mph - N/A   Mostly Cloudy
8:54 PM 43.0 °F 40.3 °F 39.6 °F 88% 30.14 in 10.0 mi West 4.6 mph - N/A   Clear
9:14 PM 41.4 °F 37.6 °F 38.3 °F 89% 30.14 in 10.0 mi WNW 5.8 mph - N/A   Clear
9:34 PM 41.2 °F 38.2 °F 38.8 °F 91% 30.15 in 10.0 mi West 4.6 mph - N/A   Clear
9:54 PM 41.2 °F 37.3 °F 38.8 °F 91% 30.15 in 10.0 mi West 5.8 mph - N/A   Clear
10:14 PM 41.0 °F 38.0 °F 38.5 °F 91% 30.16 in 10.0 mi WSW 4.6 mph - N/A   Clear
10:34 PM 40.1 °F 36.9 °F 37.9 °F 92% 30.16 in 10.0 mi WSW 4.6 mph - N/A   Clear
10:54 PM 40.3 °F 35.5 °F 38.1 °F 92% 30.17 in 10.0 mi West 6.9 mph - N/A   Clear
11:14 PM 40.6 °F 36.7 °F 38.3 °F 91% 30.17 in 10.0 mi WSW 5.8 mph - N/A   Clear
11:34 PM 40.5 °F 36.5 °F 38.3 °F 92% 30.17 in 10.0 mi West 5.8 mph - N/A   Clear
11:54 PM 40.1 °F 36.9 °F 37.8 °F 91% 30.17 in 10.0 mi West 4.6 mph - N/A   Clear